createdAt,value
2024-01-11T00:02:56.490Z,100.00
2024-01-11T00:05:59.255Z,100.00
2024-01-11T00:09:01.895Z,100.00
2024-01-11T00:12:04.666Z,100.00
2024-01-11T00:15:08.089Z,100.00
2024-01-11T00:18:12.507Z,100.00
2024-01-11T00:21:16.882Z,100.00
2024-01-11T00:24:20.140Z,100.00
2024-01-11T00:27:22.395Z,100.00
2024-01-11T00:30:25.466Z,100.00
2024-01-11T00:33:34.660Z,100.00
2024-01-11T00:36:39.924Z,100.00
2024-01-11T00:39:44.722Z,100.00
2024-01-11T00:42:48.060Z,100.00
2024-01-11T00:45:52.144Z,100.00
2024-01-11T00:48:59.579Z,100.00
2024-01-11T00:52:01.851Z,100.00
2024-01-11T00:55:04.634Z,100.00
2024-01-11T00:58:07.187Z,100.00
2024-01-11T01:01:12.752Z,100.00
2024-01-11T01:04:15.537Z,100.00
2024-01-11T01:07:18.231Z,100.00
2024-01-11T01:10:20.876Z,100.00
2024-01-11T01:13:23.255Z,100.00
2024-01-11T01:16:25.917Z,100.00
2024-01-11T01:19:28.256Z,100.00
2024-01-11T01:22:30.904Z,100.00
2024-01-11T01:25:36.409Z,100.00
2024-01-11T01:28:39.243Z,100.00
2024-01-11T01:31:41.787Z,100.00
2024-01-11T01:34:47.166Z,100.00
2024-01-11T01:37:51.214Z,100.00
2024-01-11T01:41:04.536Z,100.00
2024-01-11T01:44:09.992Z,100.00
2024-01-11T01:47:13.566Z,100.00
2024-01-11T01:50:16.437Z,100.00
2024-01-11T01:53:24.773Z,100.00
2024-01-11T01:56:28.667Z,100.00
2024-01-11T01:59:32.497Z,100.00
2024-01-11T02:02:36.360Z,100.00
2024-01-11T02:05:40.001Z,100.00
2024-01-11T02:08:45.032Z,100.00
2024-01-11T02:11:48.411Z,100.00
2024-01-11T02:14:51.436Z,100.00
2024-01-11T02:17:54.292Z,100.00
2024-01-11T02:20:57.888Z,100.00
2024-01-11T02:24:07.696Z,100.00
2024-01-11T02:27:12.117Z,100.00
2024-01-11T02:30:15.331Z,100.00
2024-01-11T02:33:20.179Z,100.00
2024-01-11T02:36:23.171Z,100.00
2024-01-11T02:39:27.438Z,100.00
2024-01-11T02:42:29.996Z,100.00
2024-01-11T02:45:32.629Z,100.00
2024-01-11T02:48:34.946Z,100.00
2024-01-11T02:51:37.894Z,100.00
2024-01-11T02:54:40.441Z,100.00
2024-01-11T02:57:43.043Z,100.00
2024-01-11T03:00:45.527Z,100.00
2024-01-11T03:03:50.821Z,100.00
2024-01-11T03:06:54.950Z,100.00
2024-01-11T03:09:57.811Z,100.00
2024-01-11T03:13:01.159Z,100.00
2024-01-11T03:16:04.617Z,100.00
2024-01-11T03:19:07.953Z,100.00
2024-01-11T03:22:10.674Z,100.00
2024-01-11T03:25:13.169Z,100.00
2024-01-11T03:28:16.270Z,100.00
2024-01-11T03:31:18.845Z,100.00
2024-01-11T03:34:21.625Z,100.00
2024-01-11T03:37:24.138Z,100.00
2024-01-11T03:40:26.587Z,100.00
2024-01-11T03:43:29.108Z,100.00
2024-01-11T03:46:31.370Z,100.00
2024-01-11T03:49:33.946Z,100.00
2024-01-11T03:52:36.541Z,100.00
2024-01-11T03:55:38.785Z,100.00
2024-01-11T03:58:43.066Z,100.00
2024-01-11T04:01:45.795Z,100.00
2024-01-11T04:04:48.315Z,100.00
2024-01-11T04:07:50.807Z,100.00
2024-01-11T04:10:53.011Z,100.00
2024-01-11T04:13:55.587Z,100.00
2024-01-11T04:16:58.097Z,100.00
2024-01-11T04:20:00.769Z,100.00
2024-01-11T04:23:03.240Z,100.00
2024-01-11T04:26:05.868Z,100.00
2024-01-11T04:29:08.508Z,100.00
2024-01-11T04:32:10.843Z,100.00
2024-01-11T04:35:13.524Z,100.00
2024-01-11T04:38:15.773Z,100.00
2024-01-11T04:41:18.367Z,100.00
2024-01-11T04:44:21.076Z,100.00
2024-01-11T04:47:23.760Z,100.00
2024-01-11T04:50:26.492Z,100.00
2024-01-11T04:53:29.069Z,100.00
2024-01-11T04:56:31.516Z,100.00
2024-01-11T04:59:33.926Z,100.00
2024-01-11T05:02:36.698Z,100.00
2024-01-11T05:05:39.091Z,100.00
2024-01-11T05:08:41.811Z,100.00
2024-01-11T05:11:44.489Z,100.00
2024-01-11T05:14:47.063Z,100.00
2024-01-11T05:17:49.568Z,100.00
2024-01-11T05:20:52.329Z,100.00
2024-01-11T05:23:54.632Z,100.00
2024-01-11T05:26:56.907Z,100.00
2024-01-11T05:29:59.136Z,100.00
2024-01-11T05:33:01.554Z,100.00
2024-01-11T05:36:04.501Z,100.00
2024-01-11T05:39:07.366Z,100.00
2024-01-11T05:42:09.905Z,100.00
2024-01-11T05:45:12.102Z,100.00
2024-01-11T05:48:20.605Z,100.00
2024-01-11T05:51:23.198Z,100.00
2024-01-11T05:54:27.917Z,100.00
2024-01-11T05:57:30.427Z,100.00
2024-01-11T06:00:33.132Z,100.00
2024-01-11T06:03:36.092Z,100.00
2024-01-11T06:06:38.569Z,100.00
2024-01-11T06:09:41.160Z,100.00
2024-01-11T06:12:43.753Z,100.00
2024-01-11T06:15:46.259Z,100.00
2024-01-11T06:18:48.710Z,100.00
2024-01-11T06:21:52.366Z,100.00
2024-01-11T06:24:54.771Z,100.00
2024-01-11T06:27:56.968Z,100.00
2024-01-11T06:30:59.541Z,100.00
2024-01-11T06:34:01.899Z,100.00
2024-01-11T06:37:04.555Z,100.00
2024-01-11T06:40:09.491Z,100.00
2024-01-11T06:43:12.797Z,100.00
2024-01-11T06:46:20.513Z,100.00
2024-01-11T06:49:22.802Z,100.00
2024-01-11T06:52:25.301Z,100.00
2024-01-11T06:55:27.647Z,100.00
2024-01-11T06:58:30.527Z,100.00
2024-01-11T07:01:33.073Z,100.00
2024-01-11T07:04:36.146Z,100.00
2024-01-11T07:07:38.711Z,100.00
2024-01-11T07:10:41.260Z,100.00
2024-01-11T07:13:44.541Z,100.00
2024-01-11T07:16:46.764Z,100.00
2024-01-11T07:19:49.385Z,100.00
2024-01-11T07:22:51.880Z,100.00
2024-01-11T07:25:54.575Z,100.00
2024-01-11T07:28:57.235Z,100.00
2024-01-11T07:31:59.756Z,100.00
2024-01-11T07:35:02.074Z,100.00
2024-01-11T07:38:06.265Z,100.00
2024-01-11T07:41:08.507Z,100.00
2024-01-11T07:44:11.125Z,100.00
2024-01-11T07:47:13.765Z,100.00
2024-01-11T07:50:16.551Z,100.00
2024-01-11T07:53:19.168Z,100.00
2024-01-11T07:56:21.904Z,100.00
2024-01-11T07:59:24.267Z,100.00
2024-01-11T08:02:26.952Z,100.00
2024-01-11T08:05:29.526Z,100.00
2024-01-11T08:08:32.088Z,100.00
2024-01-11T08:11:37.151Z,100.00
2024-01-11T08:14:43.270Z,100.00
2024-01-11T08:17:48.702Z,100.00
2024-01-11T08:20:51.967Z,100.00
2024-01-11T08:23:54.577Z,100.00
2024-01-11T08:26:57.105Z,100.00
2024-01-11T08:30:01.811Z,100.00
2024-01-11T08:33:05.374Z,100.00
2024-01-11T08:36:08.511Z,100.00
2024-01-11T08:39:12.817Z,100.00
2024-01-11T08:42:16.668Z,99.52
2024-01-11T08:45:23.306Z,98.17
2024-01-11T08:48:26.192Z,96.64
2024-01-11T08:51:28.499Z,95.02
2024-01-11T08:54:31.019Z,94.18
2024-01-11T08:57:33.591Z,93.86
2024-01-11T09:00:35.810Z,92.32
2024-01-11T09:03:38.800Z,92.30
2024-01-11T09:06:41.577Z,92.77
2024-01-11T09:09:50.932Z,92.68
2024-01-11T09:12:58.847Z,93.00
2024-01-11T09:16:01.437Z,92.58
2024-01-11T09:19:04.130Z,92.21
2024-01-11T09:22:07.017Z,91.79
2024-01-11T09:25:09.926Z,92.59
2024-01-11T09:28:12.210Z,93.07
2024-01-11T09:31:14.524Z,92.12
2024-01-11T09:34:17.107Z,92.30
2024-01-11T09:37:19.708Z,93.98
2024-01-11T09:40:22.386Z,94.81
2024-01-11T09:43:25.141Z,94.66
2024-01-11T09:46:29.407Z,95.32
2024-01-11T09:49:32.246Z,94.69
2024-01-11T09:52:36.662Z,94.74
2024-01-11T09:55:39.890Z,93.97
2024-01-11T09:58:53.568Z,93.84
2024-01-11T10:01:56.098Z,93.76
2024-01-11T10:04:58.279Z,92.46
2024-01-11T10:08:00.515Z,91.64
2024-01-11T10:11:04.390Z,91.11
2024-01-11T10:14:06.784Z,90.16
2024-01-11T10:17:10.361Z,89.35
2024-01-11T10:20:17.104Z,89.22
2024-01-11T10:23:19.944Z,87.35
2024-01-11T10:26:23.010Z,85.37
2024-01-11T10:29:32.742Z,81.66
2024-01-11T10:32:38.432Z,82.32
2024-01-11T10:35:40.709Z,78.28
2024-01-11T10:38:46.165Z,73.15
2024-01-11T10:41:53.700Z,71.62
2024-01-11T10:44:57.252Z,70.64
2024-01-11T10:48:06.151Z,74.02
2024-01-11T10:51:13.935Z,73.91
2024-01-11T10:54:17.368Z,74.16
2024-01-11T10:57:20.028Z,72.15
2024-01-11T11:00:24.073Z,71.70
2024-01-11T11:03:27.096Z,69.79
2024-01-11T11:06:31.232Z,70.84
2024-01-11T11:09:36.318Z,72.30
2024-01-11T11:12:40.366Z,74.25
2024-01-11T11:15:48.349Z,73.65
2024-01-11T11:18:55.413Z,72.54
2024-01-11T11:21:57.666Z,72.66
2024-01-11T11:25:27.234Z,71.82
2024-01-11T11:28:29.978Z,72.16
2024-01-11T11:31:58.943Z,71.60
2024-01-11T11:35:01.561Z,71.89
2024-01-11T11:38:04.709Z,71.97
2024-01-11T11:41:08.504Z,71.43
2024-01-11T11:44:14.149Z,71.52
2024-01-11T11:47:24.679Z,70.15
2024-01-11T11:50:28.132Z,69.26
2024-01-11T11:53:37.762Z,69.16
2024-01-11T11:56:40.475Z,70.16
2024-01-11T11:59:44.028Z,69.36
2024-01-11T12:02:48.834Z,69.22
2024-01-11T12:05:51.574Z,68.35
2024-01-11T12:08:57.671Z,67.39
2024-01-11T12:12:11.075Z,67.68
2024-01-11T12:15:17.616Z,66.96
2024-01-11T12:18:20.214Z,66.33
2024-01-11T12:21:23.025Z,66.63
2024-01-11T12:24:25.628Z,68.14
2024-01-11T12:27:27.893Z,67.74
2024-01-11T12:30:32.988Z,64.90
2024-01-11T12:33:37.868Z,64.88
2024-01-11T12:36:40.636Z,65.92
2024-01-11T12:39:43.625Z,65.80
2024-01-11T12:42:46.364Z,64.39
2024-01-11T12:45:48.970Z,64.01
2024-01-11T12:48:52.191Z,63.58
2024-01-11T12:51:55.237Z,64.34
2024-01-11T12:55:01.262Z,60.17
2024-01-11T12:58:13.246Z,59.40
2024-01-11T13:01:15.775Z,59.14
2024-01-11T13:04:18.428Z,61.28
2024-01-11T13:07:24.441Z,58.63
2024-01-11T13:10:29.322Z,59.17
2024-01-11T13:13:31.801Z,59.62
2024-01-11T13:16:34.339Z,59.82
2024-01-11T13:19:37.056Z,58.34
2024-01-11T13:22:39.413Z,60.24
2024-01-11T13:25:46.434Z,59.37
2024-01-11T13:28:49.479Z,59.67
2024-01-11T13:31:52.116Z,60.18
2024-01-11T13:34:54.815Z,60.87
2024-01-11T13:37:57.403Z,60.93
2024-01-11T13:40:59.680Z,61.79
2024-01-11T13:44:02.185Z,62.12
2024-01-11T13:47:04.804Z,62.20
2024-01-11T13:50:07.464Z,62.42
2024-01-11T13:53:10.053Z,63.03
2024-01-11T13:56:12.822Z,62.99
2024-01-11T13:59:16.073Z,64.08
2024-01-11T14:02:18.472Z,63.82
2024-01-11T14:05:20.953Z,64.17
2024-01-11T14:08:23.718Z,65.00
2024-01-11T14:11:26.149Z,65.67
2024-01-11T14:14:28.749Z,65.91
2024-01-11T14:17:31.440Z,65.27
2024-01-11T14:20:35.713Z,65.04
2024-01-11T14:23:39.107Z,64.47
2024-01-11T14:26:42.149Z,64.30
2024-01-11T14:29:44.896Z,64.68
2024-01-11T14:32:47.618Z,65.99
2024-01-11T14:35:50.117Z,67.55
2024-01-11T14:38:52.957Z,66.95
2024-01-11T14:41:55.300Z,66.67
2024-01-11T14:44:57.773Z,67.25
2024-01-11T14:48:00.610Z,67.19
2024-01-11T14:51:04.161Z,67.19
2024-01-11T14:54:06.512Z,67.80
2024-01-11T14:57:09.578Z,69.56
2024-01-11T15:00:12.613Z,71.44
2024-01-11T15:03:17.023Z,71.47
2024-01-11T15:06:21.042Z,72.81
2024-01-11T15:09:24.482Z,73.37
2024-01-11T15:12:26.720Z,72.89
2024-01-11T15:15:29.171Z,73.54
2024-01-11T15:18:32.029Z,74.39
2024-01-11T15:21:37.435Z,74.69
2024-01-11T15:24:42.014Z,75.80
2024-01-11T15:27:44.560Z,75.90
2024-01-11T15:30:47.402Z,75.86
2024-01-11T15:33:50.253Z,76.61
2024-01-11T15:36:55.421Z,77.63
2024-01-11T15:39:58.057Z,77.69
2024-01-11T15:43:00.717Z,78.88
2024-01-11T15:46:04.201Z,78.96
2024-01-11T15:49:07.007Z,79.22
2024-01-11T15:52:10.070Z,78.74
2024-01-11T15:55:15.404Z,79.58
2024-01-11T15:58:18.096Z,79.88
2024-01-11T16:01:20.996Z,80.05
2024-01-11T16:04:24.263Z,81.44
2024-01-11T16:07:27.028Z,81.61
2024-01-11T16:10:29.782Z,82.26
2024-01-11T16:13:32.160Z,83.78
2024-01-11T16:16:35.090Z,84.23
2024-01-11T16:19:37.878Z,84.65
2024-01-11T16:22:40.725Z,84.98
2024-01-11T16:25:43.216Z,85.43
2024-01-11T16:28:45.498Z,85.70
2024-01-11T16:31:47.838Z,86.72
2024-01-11T16:34:51.296Z,86.43
2024-01-11T16:37:53.822Z,87.43
2024-01-11T16:40:56.118Z,85.90
2024-01-11T16:43:58.761Z,84.80
2024-01-11T16:47:01.150Z,85.12
2024-01-11T16:50:07.735Z,86.29
2024-01-11T16:53:10.204Z,86.78
2024-01-11T16:56:12.610Z,87.85
2024-01-11T16:59:16.671Z,87.80
2024-01-11T17:02:22.293Z,87.32
2024-01-11T17:05:25.842Z,86.14
2024-01-11T17:08:29.350Z,86.30
2024-01-11T17:11:32.940Z,86.71
2024-01-11T17:17:39.459Z,87.76
2024-01-11T17:20:43.499Z,88.42
2024-01-11T17:23:46.599Z,88.70
2024-01-11T17:26:49.867Z,89.29
2024-01-11T17:29:53.217Z,89.39
2024-01-11T17:32:56.829Z,89.70
2024-01-11T17:36:00.384Z,89.96
2024-01-11T17:39:07.763Z,91.03
2024-01-11T17:42:11.867Z,91.06
2024-01-11T17:45:15.314Z,90.06
2024-01-11T17:48:19.028Z,90.79
2024-01-11T17:51:22.102Z,90.14
2024-01-11T17:54:25.794Z,91.83
2024-01-11T17:57:29.234Z,91.01
2024-01-11T18:00:33.344Z,90.97
2024-01-11T18:03:36.398Z,91.94
2024-01-11T18:06:39.807Z,90.55
2024-01-11T18:09:43.104Z,91.10
2024-01-11T18:12:45.893Z,91.57
2024-01-11T18:15:50.505Z,91.90
2024-01-11T18:18:54.659Z,92.46
2024-01-11T18:21:58.499Z,92.56
2024-01-11T18:25:02.751Z,92.79
2024-01-11T18:28:08.209Z,92.31
2024-01-11T18:31:16.170Z,92.45
2024-01-11T18:34:21.687Z,93.10
2024-01-11T18:37:25.513Z,92.86
2024-01-11T18:40:28.226Z,93.97
2024-01-11T18:43:30.611Z,93.81
2024-01-11T18:46:34.473Z,93.58
2024-01-11T18:49:36.947Z,93.55
2024-01-11T18:52:40.234Z,94.08
2024-01-11T18:55:43.142Z,93.62
2024-01-11T18:58:46.221Z,94.15
2024-01-11T19:01:49.176Z,94.24
2024-01-11T19:04:52.757Z,93.78
2024-01-11T19:07:55.797Z,94.42
2024-01-11T19:11:00.821Z,94.49
2024-01-11T19:14:04.379Z,95.08
2024-01-11T19:17:07.713Z,94.75
2024-01-11T19:20:10.904Z,95.87
2024-01-11T19:23:15.438Z,95.63
2024-01-11T19:26:20.137Z,96.87
2024-01-11T19:29:26.384Z,96.16
2024-01-11T19:32:30.596Z,96.21
2024-01-11T19:35:35.554Z,96.42
2024-01-11T19:38:40.888Z,97.09
2024-01-11T19:41:47.050Z,97.18
2024-01-11T19:44:52.662Z,97.33
2024-01-11T19:47:58.429Z,98.63
2024-01-11T19:51:04.187Z,98.67
2024-01-11T19:54:09.737Z,98.60
2024-01-11T19:57:12.727Z,98.51
2024-01-11T20:00:16.780Z,99.20
2024-01-11T20:03:21.528Z,99.23
2024-01-11T20:06:25.892Z,99.31
2024-01-11T20:09:28.371Z,99.01
2024-01-11T20:12:31.729Z,99.67
2024-01-11T20:15:34.466Z,99.40
2024-01-11T20:18:37.614Z,100.00
2024-01-11T20:21:40.450Z,100.00
2024-01-11T20:24:43.372Z,100.00
2024-01-11T20:27:56.022Z,100.00
2024-01-11T20:30:58.942Z,99.84
2024-01-11T20:34:03.479Z,99.50
2024-01-11T20:37:09.614Z,100.00
2024-01-11T20:40:15.512Z,100.00
2024-01-11T20:43:24.434Z,100.00
2024-01-11T20:46:32.067Z,100.00
2024-01-11T20:49:35.034Z,100.00
2024-01-11T20:52:37.563Z,100.00
2024-01-11T20:55:39.927Z,100.00
2024-01-11T20:58:45.612Z,100.00
2024-01-11T21:01:49.502Z,100.00
2024-01-11T21:04:52.444Z,100.00
2024-01-11T21:07:54.852Z,100.00
2024-01-11T21:10:58.198Z,100.00
2024-01-11T21:14:00.580Z,100.00
2024-01-11T21:17:03.583Z,100.00
2024-01-11T21:20:06.644Z,100.00
2024-01-11T21:23:09.123Z,100.00
2024-01-11T21:26:11.680Z,100.00
2024-01-11T21:29:14.571Z,100.00
2024-01-11T21:32:16.942Z,100.00
2024-01-11T21:35:19.838Z,100.00
2024-01-11T21:38:22.499Z,100.00
2024-01-11T21:41:27.392Z,100.00
2024-01-11T21:44:31.149Z,100.00
2024-01-11T21:47:34.530Z,100.00
2024-01-11T21:50:37.577Z,100.00
2024-01-11T21:53:40.209Z,100.00
2024-01-11T21:56:43.227Z,100.00
2024-01-11T21:59:45.994Z,100.00
2024-01-11T22:02:48.544Z,100.00
2024-01-11T22:05:52.837Z,100.00
2024-01-11T22:08:59.474Z,100.00
2024-01-11T22:12:02.809Z,100.00
2024-01-11T22:15:08.665Z,100.00
2024-01-11T22:18:11.726Z,100.00
2024-01-11T22:21:15.071Z,100.00
2024-01-11T22:24:18.003Z,100.00
2024-01-11T22:27:22.712Z,100.00
2024-01-11T22:30:25.799Z,100.00
2024-01-11T22:33:28.714Z,100.00
2024-01-11T22:36:31.331Z,100.00
2024-01-11T22:39:34.197Z,100.00
2024-01-11T22:42:37.078Z,100.00
2024-01-11T22:45:39.734Z,100.00
2024-01-11T22:48:43.128Z,100.00
2024-01-11T22:51:45.972Z,100.00
2024-01-11T22:54:48.504Z,100.00
2024-01-11T22:57:50.924Z,100.00
2024-01-11T23:00:54.299Z,100.00
2024-01-11T23:03:58.057Z,100.00
2024-01-11T23:07:01.213Z,100.00
2024-01-11T23:10:03.853Z,100.00
2024-01-11T23:13:06.191Z,100.00
2024-01-11T23:16:09.191Z,100.00
2024-01-11T23:19:12.075Z,100.00
2024-01-11T23:22:14.838Z,100.00
2024-01-11T23:25:17.431Z,100.00
2024-01-11T23:28:21.210Z,100.00
2024-01-11T23:31:26.848Z,100.00
2024-01-11T23:34:30.127Z,100.00
2024-01-11T23:37:32.479Z,100.00
2024-01-11T23:40:34.649Z,100.00
2024-01-11T23:43:37.822Z,100.00
2024-01-11T23:46:40.571Z,100.00
2024-01-11T23:49:45.413Z,100.00
2024-01-11T23:52:48.497Z,100.00
2024-01-11T23:55:51.681Z,100.00
2024-01-11T23:58:56.308Z,100.00
